METAR Data
IDs: Format: Raw Decoded Include TAF

Data at: 0241 UTC 24 Oct 2019

METAR for:KAWG (Washington Muni, IA, US)
Text:KAWG 240235Z AUTO 36011KT 10SM CLR 07/06 A3001 RMK AO2
Temperature: 7.0°C ( 45°F)
Dewpoint: 6.0°C ( 43°F) [RH = 93%]
Pressure (altimeter):30.01 inches Hg (1016.3 mb)
Winds:from the N (360 degrees) at 13 MPH (11 knots; 5.7 m/s)
Visibility:10 or more sm (16+ km)
Ceiling:at least 12,000 feet AGL
Clouds:sky clear below 12,000 feet AGL
QC Flag:automated observation with no human augmentation